sensor_id;sensor_type;location;lat;lon;timestamp;P1;durP1;ratioP1;P2;durP2;ratioP2
19923;SDS011;10124;53.068;18.224;2022-10-15T00:01:35;88.33;;;48.13;;
19923;SDS011;10124;53.068;18.224;2022-10-15T00:04:04;81.47;;;46.87;;
19923;SDS011;10124;53.068;18.224;2022-10-15T00:06:32;90.47;;;49.47;;
19923;SDS011;10124;53.068;18.224;2022-10-15T00:09:00;81.43;;;42.87;;
19923;SDS011;10124;53.068;18.224;2022-10-15T00:11:27;79.23;;;46.63;;
19923;SDS011;10124;53.068;18.224;2022-10-15T00:13:56;85.03;;;45.10;;
19923;SDS011;10124;53.068;18.224;2022-10-15T00:16:26;82.83;;;45.60;;
19923;SDS011;10124;53.068;18.224;2022-10-15T00:18:55;81.13;;;46.80;;
19923;SDS011;10124;53.068;18.224;2022-10-15T00:21:24;87.30;;;50.07;;
19923;SDS011;10124;53.068;18.224;2022-10-15T00:23:52;85.47;;;46.60;;
19923;SDS011;10124;53.068;18.224;2022-10-15T00:26:21;90.67;;;50.43;;
19923;SDS011;10124;53.068;18.224;2022-10-15T00:28:51;91.77;;;50.73;;
19923;SDS011;10124;53.068;18.224;2022-10-15T00:31:22;91.40;;;49.97;;
19923;SDS011;10124;53.068;18.224;2022-10-15T00:33:53;89.00;;;51.67;;
19923;SDS011;10124;53.068;18.224;2022-10-15T00:36:26;84.33;;;47.73;;
19923;SDS011;10124;53.068;18.224;2022-10-15T00:38:56;87.23;;;48.00;;
19923;SDS011;10124;53.068;18.224;2022-10-15T00:41:26;86.63;;;48.60;;
19923;SDS011;10124;53.068;18.224;2022-10-15T00:43:57;94.83;;;50.13;;
19923;SDS011;10124;53.068;18.224;2022-10-15T00:51:53;79.17;;;46.73;;
19923;SDS011;10124;53.068;18.224;2022-10-15T00:54:28;85.90;;;46.80;;
19923;SDS011;10124;53.068;18.224;2022-10-15T00:57:00;99.93;;;50.77;;
19923;SDS011;10124;53.068;18.224;2022-10-15T00:59:27;90.93;;;50.53;;
19923;SDS011;10124;53.068;18.224;2022-10-15T01:01:58;93.30;;;52.17;;
19923;SDS011;10124;53.068;18.224;2022-10-15T01:04:27;87.70;;;50.53;;
19923;SDS011;10124;53.068;18.224;2022-10-15T01:06:57;102.80;;;52.90;;
19923;SDS011;10124;53.068;18.224;2022-10-15T01:09:24;88.83;;;51.00;;
19923;SDS011;10124;53.068;18.224;2022-10-15T01:11:52;109.37;;;54.77;;
19923;SDS011;10124;53.068;18.224;2022-10-15T01:17:04;121.37;;;57.30;;
19923;SDS011;10124;53.068;18.224;2022-10-15T01:31:18;119.53;;;62.47;;
19923;SDS011;10124;53.068;18.224;2022-10-15T01:33:58;104.10;;;58.00;;
19923;SDS011;10124;53.068;18.224;2022-10-15T01:36:34;101.43;;;58.90;;
19923;SDS011;10124;53.068;18.224;2022-10-15T01:39:13;104.93;;;56.60;;
19923;SDS011;10124;53.068;18.224;2022-10-15T01:41:52;109.00;;;57.90;;
19923;SDS011;10124;53.068;18.224;2022-10-15T01:44:35;117.60;;;61.07;;
19923;SDS011;10124;53.068;18.224;2022-10-15T01:47:43;115.67;;;63.00;;
19923;SDS011;10124;53.068;18.224;2022-10-15T01:50:18;110.53;;;61.67;;
19923;SDS011;10124;53.068;18.224;2022-10-15T01:52:49;111.40;;;60.97;;
19923;SDS011;10124;53.068;18.224;2022-10-15T01:55:18;124.03;;;63.40;;
19923;SDS011;10124;53.068;18.224;2022-10-15T01:57:48;111.17;;;61.60;;
19923;SDS011;10124;53.068;18.224;2022-10-15T02:00:16;109.23;;;60.60;;
19923;SDS011;10124;53.068;18.224;2022-10-15T02:02:44;103.43;;;59.20;;
19923;SDS011;10124;53.068;18.224;2022-10-15T02:05:14;113.93;;;61.03;;
19923;SDS011;10124;53.068;18.224;2022-10-15T02:08:37;109.27;;;61.47;;
19923;SDS011;10124;53.068;18.224;2022-10-15T02:22:13;123.80;;;63.33;;
19923;SDS011;10124;53.068;18.224;2022-10-15T02:27:23;113.30;;;62.03;;
19923;SDS011;10124;53.068;18.224;2022-10-15T02:29:54;117.93;;;62.63;;
19923;SDS011;10124;53.068;18.224;2022-10-15T02:32:24;111.70;;;61.80;;
19923;SDS011;10124;53.068;18.224;2022-10-15T02:34:54;113.27;;;63.93;;
19923;SDS011;10124;53.068;18.224;2022-10-15T02:37:23;112.20;;;63.30;;
19923;SDS011;10124;53.068;18.224;2022-10-15T02:39:53;134.43;;;69.27;;
19923;SDS011;10124;53.068;18.224;2022-10-15T02:42:22;121.43;;;68.83;;
19923;SDS011;10124;53.068;18.224;2022-10-15T02:44:51;137.43;;;68.80;;
19923;SDS011;10124;53.068;18.224;2022-10-15T02:47:18;138.50;;;70.73;;
19923;SDS011;10124;53.068;18.224;2022-10-15T02:49:46;112.73;;;62.67;;
19923;SDS011;10124;53.068;18.224;2022-10-15T02:52:13;113.37;;;62.53;;
19923;SDS011;10124;53.068;18.224;2022-10-15T02:54:41;110.37;;;64.50;;
19923;SDS011;10124;53.068;18.224;2022-10-15T02:57:08;132.77;;;67.10;;
19923;SDS011;10124;53.068;18.224;2022-10-15T02:59:37;118.93;;;63.57;;
19923;SDS011;10124;53.068;18.224;2022-10-15T03:02:05;126.73;;;64.97;;
19923;SDS011;10124;53.068;18.224;2022-10-15T03:04:32;117.23;;;63.30;;
19923;SDS011;10124;53.068;18.224;2022-10-15T03:07:00;102.23;;;62.03;;
19923;SDS011;10124;53.068;18.224;2022-10-15T03:09:29;122.80;;;63.23;;
19923;SDS011;10124;53.068;18.224;2022-10-15T03:11:56;130.33;;;67.53;;
19923;SDS011;10124;53.068;18.224;2022-10-15T03:14:24;126.03;;;64.50;;
19923;SDS011;10124;53.068;18.224;2022-10-15T03:16:51;108.60;;;60.80;;
19923;SDS011;10124;53.068;18.224;2022-10-15T03:19:19;124.60;;;63.07;;
19923;SDS011;10124;53.068;18.224;2022-10-15T03:21:47;127.10;;;65.73;;
19923;SDS011;10124;53.068;18.224;2022-10-15T03:24:15;129.50;;;69.93;;
19923;SDS011;10124;53.068;18.224;2022-10-15T03:26:43;116.77;;;65.03;;
19923;SDS011;10124;53.068;18.224;2022-10-15T03:29:10;120.90;;;61.73;;
19923;SDS011;10124;53.068;18.224;2022-10-15T03:31:47;110.80;;;59.80;;
19923;SDS011;10124;53.068;18.224;2022-10-15T03:34:16;122.73;;;65.30;;
19923;SDS011;10124;53.068;18.224;2022-10-15T03:36:45;105.50;;;59.60;;
19923;SDS011;10124;53.068;18.224;2022-10-15T03:39:15;112.93;;;61.77;;
19923;SDS011;10124;53.068;18.224;2022-10-15T03:41:43;117.00;;;63.80;;
19923;SDS011;10124;53.068;18.224;2022-10-15T03:44:17;116.77;;;61.20;;
19923;SDS011;10124;53.068;18.224;2022-10-15T03:46:55;120.13;;;61.10;;
19923;SDS011;10124;53.068;18.224;2022-10-15T03:49:27;114.87;;;66.30;;
19923;SDS011;10124;53.068;18.224;2022-10-15T03:51:55;114.87;;;60.70;;
19923;SDS011;10124;53.068;18.224;2022-10-15T03:54:23;130.63;;;66.13;;
19923;SDS011;10124;53.068;18.224;2022-10-15T03:56:51;119.40;;;65.47;;
19923;SDS011;10124;53.068;18.224;2022-10-15T03:59:27;125.03;;;66.17;;
19923;SDS011;10124;53.068;18.224;2022-10-15T04:01:58;127.23;;;63.90;;
19923;SDS011;10124;53.068;18.224;2022-10-15T04:04:26;122.23;;;63.87;;
19923;SDS011;10124;53.068;18.224;2022-10-15T04:06:54;127.77;;;66.37;;
19923;SDS011;10124;53.068;18.224;2022-10-15T04:09:22;120.43;;;65.27;;
19923;SDS011;10124;53.068;18.224;2022-10-15T04:11:49;129.27;;;67.90;;
19923;SDS011;10124;53.068;18.224;2022-10-15T04:14:17;117.93;;;62.93;;
19923;SDS011;10124;53.068;18.224;2022-10-15T04:16:46;118.70;;;63.67;;
19923;SDS011;10124;53.068;18.224;2022-10-15T04:19:21;132.80;;;68.37;;
19923;SDS011;10124;53.068;18.224;2022-10-15T04:21:59;124.17;;;64.40;;
19923;SDS011;10124;53.068;18.224;2022-10-15T04:24:49;117.33;;;64.57;;
19923;SDS011;10124;53.068;18.224;2022-10-15T04:27:25;122.07;;;66.80;;
19923;SDS011;10124;53.068;18.224;2022-10-15T04:29:59;131.70;;;67.97;;
19923;SDS011;10124;53.068;18.224;2022-10-15T04:32:27;126.57;;;69.40;;
19923;SDS011;10124;53.068;18.224;2022-10-15T04:34:54;131.90;;;68.87;;
19923;SDS011;10124;53.068;18.224;2022-10-15T04:37:37;122.70;;;67.10;;
19923;SDS011;10124;53.068;18.224;2022-10-15T04:40:05;115.23;;;63.27;;
19923;SDS011;10124;53.068;18.224;2022-10-15T04:42:32;128.50;;;67.83;;
19923;SDS011;10124;53.068;18.224;2022-10-15T04:45:00;122.63;;;67.00;;
19923;SDS011;10124;53.068;18.224;2022-10-15T04:47:27;126.93;;;66.03;;
19923;SDS011;10124;53.068;18.224;2022-10-15T04:50:06;130.03;;;68.13;;
19923;SDS011;10124;53.068;18.224;2022-10-15T04:52:53;119.60;;;65.37;;
19923;SDS011;10124;53.068;18.224;2022-10-15T04:55:26;118.87;;;62.73;;
19923;SDS011;10124;53.068;18.224;2022-10-15T04:57:57;120.13;;;64.70;;
19923;SDS011;10124;53.068;18.224;2022-10-15T05:00:28;118.03;;;64.10;;
19923;SDS011;10124;53.068;18.224;2022-10-15T05:03:21;121.87;;;65.73;;
19923;SDS011;10124;53.068;18.224;2022-10-15T05:06:03;124.57;;;65.20;;
19923;SDS011;10124;53.068;18.224;2022-10-15T05:08:37;135.83;;;67.87;;
19923;SDS011;10124;53.068;18.224;2022-10-15T05:11:16;124.33;;;66.87;;
19923;SDS011;10124;53.068;18.224;2022-10-15T05:13:48;134.23;;;69.47;;
19923;SDS011;10124;53.068;18.224;2022-10-15T05:16:18;126.07;;;68.30;;
19923;SDS011;10124;53.068;18.224;2022-10-15T05:18:48;123.17;;;65.50;;
19923;SDS011;10124;53.068;18.224;2022-10-15T05:21:17;132.47;;;68.13;;
19923;SDS011;10124;53.068;18.224;2022-10-15T05:23:48;137.43;;;68.37;;
19923;SDS011;10124;53.068;18.224;2022-10-15T05:26:42;135.10;;;69.33;;
19923;SDS011;10124;53.068;18.224;2022-10-15T05:29:10;134.07;;;69.50;;
19923;SDS011;10124;53.068;18.224;2022-10-15T05:31:37;129.43;;;67.90;;
19923;SDS011;10124;53.068;18.224;2022-10-15T05:34:12;141.00;;;72.97;;
19923;SDS011;10124;53.068;18.224;2022-10-15T05:36:46;123.83;;;68.43;;
19923;SDS011;10124;53.068;18.224;2022-10-15T05:39:15;140.37;;;71.97;;
19923;SDS011;10124;53.068;18.224;2022-10-15T05:41:44;148.13;;;70.63;;
19923;SDS011;10124;53.068;18.224;2022-10-15T05:44:12;136.77;;;68.20;;
19923;SDS011;10124;53.068;18.224;2022-10-15T05:46:40;117.77;;;65.00;;
19923;SDS011;10124;53.068;18.224;2022-10-15T05:49:09;128.60;;;66.53;;
19923;SDS011;10124;53.068;18.224;2022-10-15T05:51:48;119.00;;;64.20;;
19923;SDS011;10124;53.068;18.224;2022-10-15T05:54:26;125.20;;;67.37;;
19923;SDS011;10124;53.068;18.224;2022-10-15T05:56:54;135.20;;;69.60;;
19923;SDS011;10124;53.068;18.224;2022-10-15T05:59:21;116.33;;;64.53;;
19923;SDS011;10124;53.068;18.224;2022-10-15T06:01:48;119.00;;;67.03;;
19923;SDS011;10124;53.068;18.224;2022-10-15T06:04:16;131.53;;;67.57;;
19923;SDS011;10124;53.068;18.224;2022-10-15T06:06:44;127.57;;;63.03;;
19923;SDS011;10124;53.068;18.224;2022-10-15T06:09:11;107.90;;;61.40;;
19923;SDS011;10124;53.068;18.224;2022-10-15T06:11:39;109.00;;;60.90;;
19923;SDS011;10124;53.068;18.224;2022-10-15T06:14:08;108.47;;;61.63;;
19923;SDS011;10124;53.068;18.224;2022-10-15T06:16:35;99.57;;;59.70;;
19923;SDS011;10124;53.068;18.224;2022-10-15T06:19:03;90.57;;;53.47;;
19923;SDS011;10124;53.068;18.224;2022-10-15T06:21:30;95.00;;;54.43;;
19923;SDS011;10124;53.068;18.224;2022-10-15T06:23:58;91.30;;;50.97;;
19923;SDS011;10124;53.068;18.224;2022-10-15T06:26:25;79.40;;;49.57;;
19923;SDS011;10124;53.068;18.224;2022-10-15T06:28:53;83.40;;;48.03;;
19923;SDS011;10124;53.068;18.224;2022-10-15T06:31:21;79.77;;;45.70;;
19923;SDS011;10124;53.068;18.224;2022-10-15T06:33:49;72.40;;;43.90;;
19923;SDS011;10124;53.068;18.224;2022-10-15T06:36:17;68.60;;;42.07;;
19923;SDS011;10124;53.068;18.224;2022-10-15T06:38:45;70.90;;;40.73;;
19923;SDS011;10124;53.068;18.224;2022-10-15T06:41:13;69.43;;;43.87;;
19923;SDS011;10124;53.068;18.224;2022-10-15T06:43:42;67.47;;;41.67;;
19923;SDS011;10124;53.068;18.224;2022-10-15T06:46:12;76.27;;;41.57;;
19923;SDS011;10124;53.068;18.224;2022-10-15T06:48:40;68.77;;;42.90;;
19923;SDS011;10124;53.068;18.224;2022-10-15T06:51:10;72.73;;;43.00;;
19923;SDS011;10124;53.068;18.224;2022-10-15T06:53:42;69.10;;;40.23;;
19923;SDS011;10124;53.068;18.224;2022-10-15T06:56:10;65.43;;;39.67;;
19923;SDS011;10124;53.068;18.224;2022-10-15T06:58:39;63.77;;;39.87;;
19923;SDS011;10124;53.068;18.224;2022-10-15T07:01:09;62.13;;;40.13;;
19923;SDS011;10124;53.068;18.224;2022-10-15T07:03:37;68.47;;;40.30;;
19923;SDS011;10124;53.068;18.224;2022-10-15T07:06:06;67.57;;;40.20;;
19923;SDS011;10124;53.068;18.224;2022-10-15T07:08:35;68.73;;;39.93;;
19923;SDS011;10124;53.068;18.224;2022-10-15T07:11:03;69.50;;;40.40;;
19923;SDS011;10124;53.068;18.224;2022-10-15T07:13:32;68.17;;;40.17;;
19923;SDS011;10124;53.068;18.224;2022-10-15T07:16:09;58.87;;;38.30;;
19923;SDS011;10124;53.068;18.224;2022-10-15T07:18:38;66.37;;;37.83;;
19923;SDS011;10124;53.068;18.224;2022-10-15T07:21:07;60.53;;;36.13;;
19923;SDS011;10124;53.068;18.224;2022-10-15T07:23:35;68.83;;;38.43;;
19923;SDS011;10124;53.068;18.224;2022-10-15T07:26:02;60.37;;;37.23;;
19923;SDS011;10124;53.068;18.224;2022-10-15T07:28:30;60.33;;;37.00;;
19923;SDS011;10124;53.068;18.224;2022-10-15T07:31:01;57.53;;;36.17;;
19923;SDS011;10124;53.068;18.224;2022-10-15T07:33:30;55.77;;;37.80;;
19923;SDS011;10124;53.068;18.224;2022-10-15T07:36:02;60.23;;;35.47;;
19923;SDS011;10124;53.068;18.224;2022-10-15T07:38:33;58.10;;;36.23;;
19923;SDS011;10124;53.068;18.224;2022-10-15T07:41:01;59.87;;;34.97;;
19923;SDS011;10124;53.068;18.224;2022-10-15T07:43:36;68.70;;;37.37;;
19923;SDS011;10124;53.068;18.224;2022-10-15T07:46:04;57.53;;;36.17;;
19923;SDS011;10124;53.068;18.224;2022-10-15T07:48:31;55.87;;;35.60;;
19923;SDS011;10124;53.068;18.224;2022-10-15T07:51:00;55.57;;;34.67;;
19923;SDS011;10124;53.068;18.224;2022-10-15T07:53:31;62.90;;;34.63;;
19923;SDS011;10124;53.068;18.224;2022-10-15T07:56:00;54.97;;;34.03;;
19923;SDS011;10124;53.068;18.224;2022-10-15T07:58:35;58.23;;;34.17;;
19923;SDS011;10124;53.068;18.224;2022-10-15T08:01:04;54.10;;;33.17;;
19923;SDS011;10124;53.068;18.224;2022-10-15T08:03:33;54.63;;;33.63;;
19923;SDS011;10124;53.068;18.224;2022-10-15T08:06:03;56.27;;;33.40;;
19923;SDS011;10124;53.068;18.224;2022-10-15T08:08:33;57.40;;;36.60;;
19923;SDS011;10124;53.068;18.224;2022-10-15T08:11:06;52.00;;;32.47;;
19923;SDS011;10124;53.068;18.224;2022-10-15T08:13:38;63.07;;;34.03;;
19923;SDS011;10124;53.068;18.224;2022-10-15T08:16:08;53.50;;;33.07;;
19923;SDS011;10124;53.068;18.224;2022-10-15T08:18:38;57.50;;;32.93;;
19923;SDS011;10124;53.068;18.224;2022-10-15T08:21:06;47.07;;;30.03;;
19923;SDS011;10124;53.068;18.224;2022-10-15T08:23:34;51.45;;;28.63;;
19923;SDS011;10124;53.068;18.224;2022-10-15T08:26:02;47.20;;;28.92;;
19923;SDS011;10124;53.068;18.224;2022-10-15T08:28:31;44.28;;;27.48;;
19923;SDS011;10124;53.068;18.224;2022-10-15T08:31:00;59.88;;;27.92;;
19923;SDS011;10124;53.068;18.224;2022-10-15T08:33:32;47.45;;;28.70;;
19923;SDS011;10124;53.068;18.224;2022-10-15T08:36:01;44.95;;;27.38;;
19923;SDS011;10124;53.068;18.224;2022-10-15T08:38:30;42.25;;;25.38;;
19923;SDS011;10124;53.068;18.224;2022-10-15T08:40:59;39.92;;;25.70;;
19923;SDS011;10124;53.068;18.224;2022-10-15T08:43:38;41.15;;;27.02;;
19923;SDS011;10124;53.068;18.224;2022-10-15T08:46:15;38.80;;;24.98;;
19923;SDS011;10124;53.068;18.224;2022-10-15T08:48:52;43.45;;;26.83;;
19923;SDS011;10124;53.068;18.224;2022-10-15T08:51:25;43.17;;;25.90;;
19923;SDS011;10124;53.068;18.224;2022-10-15T08:54:03;43.88;;;27.45;;
19923;SDS011;10124;53.068;18.224;2022-10-15T08:56:33;34.38;;;24.75;;
19923;SDS011;10124;53.068;18.224;2022-10-15T09:01:48;43.90;;;25.08;;
19923;SDS011;10124;53.068;18.224;2022-10-15T09:13:06;38.55;;;23.38;;
19923;SDS011;10124;53.068;18.224;2022-10-15T09:15:53;40.35;;;26.55;;
19923;SDS011;10124;53.068;18.224;2022-10-15T09:18:32;37.85;;;24.67;;
19923;SDS011;10124;53.068;18.224;2022-10-15T09:21:02;43.17;;;25.92;;
19923;SDS011;10124;53.068;18.224;2022-10-15T09:23:31;39.38;;;24.15;;
19923;SDS011;10124;53.068;18.224;2022-10-15T09:28:53;44.00;;;26.15;;
19923;SDS011;10124;53.068;18.224;2022-10-15T09:31:34;42.38;;;25.60;;
19923;SDS011;10124;53.068;18.224;2022-10-15T09:36:53;40.97;;;24.80;;
19923;SDS011;10124;53.068;18.224;2022-10-15T09:39:34;42.83;;;26.90;;
19923;SDS011;10124;53.068;18.224;2022-10-15T09:42:12;54.08;;;28.05;;
19923;SDS011;10124;53.068;18.224;2022-10-15T09:44:54;44.95;;;26.10;;
19923;SDS011;10124;53.068;18.224;2022-10-15T09:47:30;40.30;;;26.80;;
19923;SDS011;10124;53.068;18.224;2022-10-15T09:50:03;44.15;;;28.52;;
19923;SDS011;10124;53.068;18.224;2022-10-15T09:52:44;46.17;;;26.52;;
19923;SDS011;10124;53.068;18.224;2022-10-15T09:58:50;48.80;;;28.88;;
19923;SDS011;10124;53.068;18.224;2022-10-15T10:01:24;51.00;;;29.30;;
19923;SDS011;10124;53.068;18.224;2022-10-15T10:04:02;42.15;;;27.35;;
19923;SDS011;10124;53.068;18.224;2022-10-15T10:09:15;48.28;;;29.55;;
19923;SDS011;10124;53.068;18.224;2022-10-15T10:11:46;46.17;;;29.25;;
19923;SDS011;10124;53.068;18.224;2022-10-15T10:14:25;46.22;;;30.13;;
19923;SDS011;10124;53.068;18.224;2022-10-15T10:20:01;48.72;;;28.85;;
19923;SDS011;10124;53.068;18.224;2022-10-15T10:25:37;50.20;;;31.67;;
19923;SDS011;10124;53.068;18.224;2022-10-15T10:30:58;49.78;;;31.65;;
19923;SDS011;10124;53.068;18.224;2022-10-15T10:33:48;48.90;;;30.50;;
19923;SDS011;10124;53.068;18.224;2022-10-15T10:36:26;46.17;;;27.75;;
19923;SDS011;10124;53.068;18.224;2022-10-15T10:49:52;48.08;;;29.73;;
19923;SDS011;10124;53.068;18.224;2022-10-15T10:52:30;42.15;;;26.80;;
19923;SDS011;10124;53.068;18.224;2022-10-15T10:55:16;41.60;;;27.52;;
19923;SDS011;10124;53.068;18.224;2022-10-15T10:57:54;44.50;;;27.13;;
19923;SDS011;10124;53.068;18.224;2022-10-15T11:00:24;46.78;;;28.98;;
19923;SDS011;10124;53.068;18.224;2022-10-15T11:03:01;46.75;;;28.73;;
19923;SDS011;10124;53.068;18.224;2022-10-15T11:05:31;46.75;;;29.85;;
19923;SDS011;10124;53.068;18.224;2022-10-15T11:11:25;42.03;;;27.70;;
19923;SDS011;10124;53.068;18.224;2022-10-15T11:16:36;43.08;;;28.30;;
19923;SDS011;10124;53.068;18.224;2022-10-15T11:22:28;51.10;;;29.90;;
19923;SDS011;10124;53.068;18.224;2022-10-15T11:28:18;45.75;;;29.52;;
19923;SDS011;10124;53.068;18.224;2022-10-15T11:36:31;48.60;;;31.27;;
19923;SDS011;10124;53.068;18.224;2022-10-15T11:39:11;52.65;;;28.92;;
19923;SDS011;10124;53.068;18.224;2022-10-15T11:53:07;50.72;;;;;
19923;SDS011;10124;53.068;18.224;2022-10-15T11:56:03;47.20;;;30.75;;
19923;SDS011;10124;53.068;18.224;2022-10-15T11:58:50;51.15;;;30.10;;
19923;SDS011;10124;53.068;18.224;2022-10-15T12:02:23;44.30;;;29.90;;
19923;SDS011;10124;53.068;18.224;2022-10-15T12:04:47;47.45;;;29.65;;
19923;SDS011;10124;53.068;18.224;2022-10-15T12:08:03;46.60;;;29.80;;
19923;SDS011;10124;53.068;18.224;2022-10-15T12:10:28;47.50;;;28.25;;
19923;SDS011;10124;53.068;18.224;2022-10-15T12:13:30;42.63;;;27.55;;
19923;SDS011;10124;53.068;18.224;2022-10-15T12:19:19;47.10;;;29.48;;
19923;SDS011;10124;53.068;18.224;2022-10-15T12:27:30;48.50;;;28.65;;
19923;SDS011;10124;53.068;18.224;2022-10-15T12:32:38;42.65;;;27.50;;
19923;SDS011;10124;53.068;18.224;2022-10-15T12:38:25;43.63;;;27.83;;
19923;SDS011;10124;53.068;18.224;2022-10-15T12:41:08;42.67;;;27.55;;
19923;SDS011;10124;53.068;18.224;2022-10-15T12:43:40;41.40;;;28.15;;
19923;SDS011;10124;53.068;18.224;2022-10-15T12:46:14;39.28;;;26.65;;
19923;SDS011;10124;53.068;18.224;2022-10-15T12:48:45;46.90;;;27.05;;
19923;SDS011;10124;53.068;18.224;2022-10-15T12:53:52;37.55;;;26.42;;
19923;SDS011;10124;53.068;18.224;2022-10-15T12:56:46;52.33;;;36.28;;
19923;SDS011;10124;53.068;18.224;2022-10-15T12:59:52;64.18;;;47.72;;
19923;SDS011;10124;53.068;18.224;2022-10-15T13:02:33;57.97;;;38.40;;
19923;SDS011;10124;53.068;18.224;2022-10-15T13:05:05;45.20;;;29.48;;
19923;SDS011;10124;53.068;18.224;2022-10-15T13:07:39;46.17;;;29.25;;
19923;SDS011;10124;53.068;18.224;2022-10-15T13:10:15;43.45;;;30.00;;
19923;SDS011;10124;53.068;18.224;2022-10-15T13:12:56;48.63;;;32.08;;
19923;SDS011;10124;53.068;18.224;2022-10-15T13:15:28;49.72;;;31.67;;
19923;SDS011;10124;53.068;18.224;2022-10-15T13:17:59;44.28;;;29.70;;
19923;SDS011;10124;53.068;18.224;2022-10-15T13:20:36;44.28;;;27.48;;
19923;SDS011;10124;53.068;18.224;2022-10-15T13:23:16;52.53;;;30.10;;
19923;SDS011;10124;53.068;18.224;2022-10-15T13:26:09;41.08;;;27.45;;
19923;SDS011;10124;53.068;18.224;2022-10-15T13:28:41;36.00;;;24.52;;
19923;SDS011;10124;53.068;18.224;2022-10-15T13:31:18;39.38;;;24.27;;
19923;SDS011;10124;53.068;18.224;2022-10-15T13:34:09;39.05;;;25.55;;
19923;SDS011;10124;53.068;18.224;2022-10-15T13:36:52;36.58;;;25.30;;
19923;SDS011;10124;53.068;18.224;2022-10-15T13:42:12;41.63;;;26.35;;
19923;SDS011;10124;53.068;18.224;2022-10-15T13:44:55;46.60;;;26.83;;
19923;SDS011;10124;53.068;18.224;2022-10-15T13:47:30;38.88;;;26.75;;
19923;SDS011;10124;53.068;18.224;2022-10-15T13:53:22;43.00;;;27.42;;
19923;SDS011;10124;53.068;18.224;2022-10-15T13:55:59;42.45;;;26.67;;
19923;SDS011;10124;53.068;18.224;2022-10-15T13:58:35;40.00;;;25.40;;
19923;SDS011;10124;53.068;18.224;2022-10-15T14:01:08;38.88;;;25.27;;
19923;SDS011;10124;53.068;18.224;2022-10-15T14:03:51;44.72;;;27.65;;
19923;SDS011;10124;53.068;18.224;2022-10-15T14:06:32;40.63;;;25.02;;
19923;SDS011;10124;53.068;18.224;2022-10-15T14:09:17;40.08;;;24.55;;
19923;SDS011;10124;53.068;18.224;2022-10-15T14:11:52;39.63;;;24.90;;
19923;SDS011;10124;53.068;18.224;2022-10-15T14:14:40;45.15;;;25.90;;
19923;SDS011;10124;53.068;18.224;2022-10-15T14:20:03;38.45;;;24.85;;
19923;SDS011;10124;53.068;18.224;2022-10-15T14:22:54;39.90;;;24.70;;
19923;SDS011;10124;53.068;18.224;2022-10-15T14:25:22;41.03;;;24.88;;
19923;SDS011;10124;53.068;18.224;2022-10-15T14:27:52;40.13;;;26.50;;
19923;SDS011;10124;53.068;18.224;2022-10-15T14:30:25;41.05;;;24.10;;
19923;SDS011;10124;53.068;18.224;2022-10-15T14:33:00;47.13;;;26.08;;
19923;SDS011;10124;53.068;18.224;2022-10-15T14:35:32;41.17;;;26.10;;
19923;SDS011;10124;53.068;18.224;2022-10-15T14:40:36;39.45;;;26.13;;
19923;SDS011;10124;53.068;18.224;2022-10-15T14:43:12;42.45;;;26.30;;
19923;SDS011;10124;53.068;18.224;2022-10-15T14:48:33;40.42;;;26.02;;
19923;SDS011;10124;53.068;18.224;2022-10-15T14:51:07;44.35;;;26.27;;
19923;SDS011;10124;53.068;18.224;2022-10-15T14:53:44;46.10;;;27.60;;
19923;SDS011;10124;53.068;18.224;2022-10-15T14:56:14;42.50;;;25.30;;
19923;SDS011;10124;53.068;18.224;2022-10-15T14:58:46;38.58;;;25.33;;
19923;SDS011;10124;53.068;18.224;2022-10-15T15:01:18;45.67;;;26.02;;
19923;SDS011;10124;53.068;18.224;2022-10-15T15:03:51;38.85;;;25.90;;
19923;SDS011;10124;53.068;18.224;2022-10-15T15:06:21;41.05;;;25.15;;
19923;SDS011;10124;53.068;18.224;2022-10-15T15:08:51;42.58;;;24.55;;
19923;SDS011;10124;53.068;18.224;2022-10-15T15:11:20;44.78;;;25.42;;
19923;SDS011;10124;53.068;18.224;2022-10-15T15:13:51;40.70;;;23.98;;
19923;SDS011;10124;53.068;18.224;2022-10-15T15:16:20;43.75;;;24.85;;
19923;SDS011;10124;53.068;18.224;2022-10-15T15:18:49;44.22;;;23.98;;
19923;SDS011;10124;53.068;18.224;2022-10-15T15:21:19;38.63;;;24.50;;
19923;SDS011;10124;53.068;18.224;2022-10-15T15:23:49;39.63;;;25.65;;
19923;SDS011;10124;53.068;18.224;2022-10-15T15:26:17;42.72;;;25.20;;
19923;SDS011;10124;53.068;18.224;2022-10-15T15:28:45;42.70;;;24.83;;
19923;SDS011;10124;53.068;18.224;2022-10-15T15:31:14;43.42;;;26.45;;
19923;SDS011;10124;53.068;18.224;2022-10-15T15:33:44;37.72;;;24.80;;
19923;SDS011;10124;53.068;18.224;2022-10-15T15:36:13;40.05;;;24.98;;
19923;SDS011;10124;53.068;18.224;2022-10-15T15:38:50;43.58;;;25.25;;
19923;SDS011;10124;53.068;18.224;2022-10-15T15:41:20;42.85;;;25.05;;
19923;SDS011;10124;53.068;18.224;2022-10-15T15:43:50;41.47;;;26.52;;
19923;SDS011;10124;53.068;18.224;2022-10-15T15:46:21;36.38;;;24.20;;
19923;SDS011;10124;53.068;18.224;2022-10-15T15:48:49;40.17;;;24.23;;
19923;SDS011;10124;53.068;18.224;2022-10-15T15:51:20;42.70;;;25.80;;
19923;SDS011;10124;53.068;18.224;2022-10-15T15:53:52;47.88;;;24.55;;
19923;SDS011;10124;53.068;18.224;2022-10-15T15:56:22;41.67;;;23.83;;
19923;SDS011;10124;53.068;18.224;2022-10-15T15:58:50;38.78;;;23.73;;
19923;SDS011;10124;53.068;18.224;2022-10-15T16:01:18;38.50;;;22.90;;
19923;SDS011;10124;53.068;18.224;2022-10-15T16:03:47;38.97;;;24.92;;
19923;SDS011;10124;53.068;18.224;2022-10-15T16:06:15;34.28;;;23.02;;
19923;SDS011;10124;53.068;18.224;2022-10-15T16:08:44;35.47;;;22.98;;
19923;SDS011;10124;53.068;18.224;2022-10-15T16:11:11;35.13;;;22.85;;
19923;SDS011;10124;53.068;18.224;2022-10-15T16:13:39;35.08;;;21.63;;
19923;SDS011;10124;53.068;18.224;2022-10-15T16:16:09;37.92;;;22.20;;
19923;SDS011;10124;53.068;18.224;2022-10-15T16:18:37;31.98;;;22.35;;
19923;SDS011;10124;53.068;18.224;2022-10-15T16:21:05;34.30;;;22.65;;
19923;SDS011;10124;53.068;18.224;2022-10-15T16:23:33;33.03;;;20.95;;
19923;SDS011;10124;53.068;18.224;2022-10-15T16:26:04;33.60;;;22.55;;
19923;SDS011;10124;53.068;18.224;2022-10-15T16:28:33;32.05;;;21.88;;
19923;SDS011;10124;53.068;18.224;2022-10-15T16:33:46;41.67;;;24.20;;
19923;SDS011;10124;53.068;18.224;2022-10-15T16:36:14;43.00;;;24.17;;
19923;SDS011;10124;53.068;18.224;2022-10-15T16:38:44;30.77;;;22.58;;
19923;SDS011;10124;53.068;18.224;2022-10-15T16:41:14;46.50;;;24.63;;
19923;SDS011;10124;53.068;18.224;2022-10-15T16:43:45;37.05;;;23.05;;
19923;SDS011;10124;53.068;18.224;2022-10-15T16:46:15;41.75;;;23.77;;
19923;SDS011;10124;53.068;18.224;2022-10-15T16:48:43;40.05;;;25.05;;
19923;SDS011;10124;53.068;18.224;2022-10-15T16:51:12;37.90;;;23.55;;
19923;SDS011;10124;53.068;18.224;2022-10-15T16:53:42;36.75;;;23.38;;
19923;SDS011;10124;53.068;18.224;2022-10-15T16:56:21;36.58;;;22.20;;
19923;SDS011;10124;53.068;18.224;2022-10-15T16:58:51;41.90;;;24.05;;